createdAt,value
2023-02-16T00:00:06.473Z,98663.03
2023-02-16T00:02:34.067Z,98667.19
2023-02-16T00:05:00.709Z,98675.13
2023-02-16T00:07:27.220Z,98679.66
2023-02-16T00:09:53.697Z,98673.38
2023-02-16T00:12:39.893Z,98669.41
2023-02-16T00:15:15.758Z,98668.69
2023-02-16T00:17:42.213Z,98673.00
2023-02-16T00:20:17.883Z,98671.19
2023-02-16T00:22:44.572Z,98672.50
2023-02-16T00:25:11.078Z,98671.63
2023-02-16T00:27:37.832Z,98682.41
2023-02-16T00:30:13.856Z,98681.44
2023-02-16T00:32:40.343Z,98685.72
2023-02-16T00:35:13.970Z,98683.00
2023-02-16T00:37:40.516Z,98670.25
2023-02-16T00:40:07.346Z,98674.84
2023-02-16T00:42:34.165Z,98681.75
2023-02-16T00:45:01.199Z,98675.66
2023-02-16T00:47:27.660Z,98674.72
2023-02-16T00:49:56.555Z,98663.69
2023-02-16T00:52:33.442Z,98665.91
2023-02-16T00:55:00.844Z,98661.25
2023-02-16T00:57:28.599Z,98674.56
2023-02-16T01:00:02.040Z,98669.63
2023-02-16T01:02:29.071Z,98668.03
2023-02-16T01:04:55.712Z,98673.97
2023-02-16T01:07:40.962Z,98671.00
2023-02-16T01:10:26.190Z,98671.53
2023-02-16T01:12:52.674Z,98662.84
2023-02-16T01:15:21.171Z,98664.41
2023-02-16T01:17:47.708Z,98665.44
2023-02-16T01:20:15.978Z,98661.97
2023-02-16T01:22:42.526Z,98671.56
2023-02-16T01:25:09.069Z,98669.69
2023-02-16T01:27:37.338Z,98661.13
2023-02-16T01:30:05.474Z,98669.28
2023-02-16T01:32:32.082Z,98669.28
2023-02-16T01:34:58.718Z,98660.97
2023-02-16T01:37:25.357Z,98661.41
2023-02-16T01:39:51.788Z,98657.41
2023-02-16T01:42:29.354Z,98658.38
2023-02-16T01:45:01.533Z,98661.91
2023-02-16T01:47:28.013Z,98659.22
2023-02-16T01:49:54.541Z,98664.41
2023-02-16T01:52:24.080Z,98656.50
2023-02-16T01:54:53.519Z,98657.59
2023-02-16T01:57:36.632Z,98661.59
2023-02-16T02:00:12.365Z,98649.81
2023-02-16T02:02:46.057Z,98649.88
2023-02-16T02:05:34.106Z,98649.69
2023-02-16T02:08:04.432Z,98646.34
2023-02-16T02:10:38.920Z,98632.78
2023-02-16T02:13:08.962Z,98635.03
2023-02-16T02:15:36.898Z,98636.97
2023-02-16T02:18:03.750Z,98639.59
2023-02-16T02:21:01.209Z,98635.16
2023-02-16T02:23:38.266Z,98635.47
2023-02-16T02:26:23.926Z,98635.03
2023-02-16T02:28:53.476Z,98630.09
2023-02-16T02:31:27.255Z,98627.38
2023-02-16T02:33:56.544Z,98623.63
2023-02-16T02:36:46.822Z,98618.47
2023-02-16T02:39:16.688Z,98618.38
2023-02-16T02:42:04.895Z,98618.19
2023-02-16T02:44:48.643Z,98617.88
2023-02-16T02:47:15.409Z,98619.03
2023-02-16T02:49:48.974Z,98621.53
2023-02-16T02:52:15.613Z,98612.13
2023-02-16T02:55:00.800Z,98612.53
2023-02-16T02:58:07.453Z,98616.06
2023-02-16T03:00:44.691Z,98621.53
2023-02-16T03:03:24.220Z,98615.38
2023-02-16T03:05:57.120Z,98608.16
2023-02-16T03:08:25.364Z,98616.19
2023-02-16T03:11:12.931Z,98617.38
2023-02-16T03:13:42.264Z,98610.00
2023-02-16T03:16:12.594Z,98617.69
2023-02-16T03:18:59.303Z,98621.59
2023-02-16T03:21:45.425Z,98614.69
2023-02-16T03:24:31.923Z,98616.63
2023-02-16T03:27:17.532Z,98605.78
2023-02-16T03:29:45.712Z,98608.81
2023-02-16T03:32:12.362Z,98617.66
2023-02-16T03:34:38.973Z,98611.09
2023-02-16T03:37:05.863Z,98608.28
2023-02-16T03:39:52.875Z,98608.03
2023-02-16T03:42:20.061Z,98606.25
2023-02-16T03:44:46.529Z,98610.56
2023-02-16T03:47:12.984Z,98609.84
2023-02-16T03:49:39.429Z,98600.16
2023-02-16T03:52:06.016Z,98606.81
2023-02-16T03:54:32.488Z,98602.44
2023-02-16T03:56:58.932Z,98608.28
2023-02-16T03:59:25.473Z,98604.81
2023-02-16T04:01:51.979Z,98605.06
2023-02-16T04:04:18.586Z,98602.66
2023-02-16T04:06:45.083Z,98600.34
2023-02-16T04:09:11.546Z,98601.75
2023-02-16T04:11:56.663Z,98596.28
2023-02-16T04:14:23.199Z,98598.28
2023-02-16T04:16:49.717Z,98595.47
2023-02-16T04:19:16.200Z,98594.09
2023-02-16T04:21:43.056Z,98594.09
2023-02-16T04:24:09.605Z,98585.28
2023-02-16T04:26:36.113Z,98582.34
2023-02-16T04:29:02.585Z,98591.56
2023-02-16T04:31:29.613Z,98586.81
2023-02-16T04:33:56.244Z,98581.22
2023-02-16T04:36:22.712Z,98579.72
2023-02-16T04:38:49.142Z,98571.19
2023-02-16T04:41:15.592Z,98570.41
2023-02-16T04:43:42.059Z,98572.03
2023-02-16T04:46:08.651Z,98583.03
2023-02-16T04:48:35.185Z,98575.69
2023-02-16T04:51:03.773Z,98573.56
2023-02-16T04:53:30.539Z,98573.69
2023-02-16T04:55:56.999Z,98568.13
2023-02-16T04:58:23.525Z,98574.22
2023-02-16T05:00:50.008Z,98566.28
2023-02-16T05:03:16.504Z,98569.94
2023-02-16T05:05:43.032Z,98567.56
2023-02-16T05:08:09.675Z,98564.19
2023-02-16T05:10:36.140Z,98565.34
2023-02-16T05:13:21.095Z,98562.31
2023-02-16T05:15:47.661Z,98565.53
2023-02-16T05:18:14.247Z,98568.13
2023-02-16T05:20:59.127Z,98560.97
2023-02-16T05:23:25.620Z,98561.34
2023-02-16T05:25:52.073Z,98559.41
2023-02-16T05:28:18.616Z,98566.81
2023-02-16T05:30:45.221Z,98567.94
2023-02-16T05:33:11.725Z,98560.16
2023-02-16T05:35:38.231Z,98561.44
2023-02-16T05:38:04.770Z,98566.94
2023-02-16T05:40:31.242Z,98563.31
2023-02-16T05:42:57.686Z,98566.84
2023-02-16T05:45:24.233Z,98565.47
2023-02-16T05:47:50.761Z,98562.59
2023-02-16T05:50:17.381Z,98568.66
2023-02-16T05:52:44.099Z,98570.66
2023-02-16T05:55:10.743Z,98585.25
2023-02-16T05:57:37.191Z,98577.75
2023-02-16T06:00:04.505Z,98584.94
2023-02-16T06:02:31.065Z,98579.19
2023-02-16T06:04:57.565Z,98574.47
2023-02-16T06:07:24.138Z,98580.75
2023-02-16T06:09:50.636Z,98577.66
2023-02-16T06:12:17.161Z,98586.25
2023-02-16T06:14:43.624Z,98596.56
2023-02-16T06:17:10.092Z,98588.91
2023-02-16T06:19:36.533Z,98593.50
2023-02-16T06:22:03.030Z,98596.91
2023-02-16T06:24:29.818Z,98594.69
2023-02-16T06:26:56.322Z,98601.28
2023-02-16T06:29:22.893Z,98609.16
2023-02-16T06:31:49.492Z,98600.63
2023-02-16T06:34:16.015Z,98605.13
2023-02-16T06:36:42.816Z,98605.28
2023-02-16T06:39:09.401Z,98604.19
2023-02-16T06:41:39.928Z,98608.16
2023-02-16T06:44:08.505Z,98604.56
2023-02-16T06:46:35.094Z,98609.56
2023-02-16T06:49:01.953Z,98613.25
2023-02-16T06:51:28.737Z,98618.59
2023-02-16T06:53:55.261Z,98623.09
2023-02-16T06:56:21.720Z,98617.03
2023-02-16T06:58:48.373Z,98619.28
2023-02-16T07:01:14.972Z,98614.75
2023-02-16T07:03:41.553Z,98615.09
2023-02-16T07:06:08.125Z,98618.28
2023-02-16T07:08:35.811Z,98608.72
2023-02-16T07:11:02.483Z,98621.69
2023-02-16T07:13:28.970Z,98614.25
2023-02-16T07:15:55.460Z,98605.88
2023-02-16T07:18:21.939Z,98609.03
2023-02-16T07:20:48.468Z,98600.41
2023-02-16T07:23:15.073Z,98598.34
2023-02-16T07:25:41.502Z,98592.84
2023-02-16T07:28:07.985Z,98593.09
2023-02-16T07:30:35.694Z,98596.00
2023-02-16T07:33:02.493Z,98590.00
2023-02-16T07:35:28.939Z,98600.69
2023-02-16T07:37:55.488Z,98593.16
2023-02-16T07:40:21.905Z,98598.28
2023-02-16T07:42:48.364Z,98601.31
2023-02-16T07:45:14.849Z,98595.69
2023-02-16T07:47:41.337Z,98605.78
2023-02-16T07:50:08.018Z,98592.72
2023-02-16T07:52:34.734Z,98602.88
2023-02-16T07:55:01.530Z,98603.56
2023-02-16T07:57:28.326Z,98598.97
2023-02-16T07:59:55.425Z,98601.06
2023-02-16T08:02:22.833Z,98598.22
2023-02-16T08:04:49.821Z,98605.81
2023-02-16T08:07:16.937Z,98602.94
2023-02-16T08:09:43.405Z,98602.78
2023-02-16T08:12:11.025Z,98605.78
2023-02-16T08:14:38.056Z,98596.31
2023-02-16T08:17:05.390Z,98596.19
2023-02-16T08:19:32.220Z,98598.22
2023-02-16T08:21:59.688Z,98603.69
2023-02-16T08:24:26.677Z,98606.81
2023-02-16T08:26:55.814Z,98602.84
2023-02-16T08:29:23.226Z,98606.13
2023-02-16T08:31:50.207Z,98601.53
2023-02-16T08:34:18.619Z,98610.16
2023-02-16T08:36:46.437Z,98609.81
2023-02-16T08:39:17.509Z,98617.09
2023-02-16T08:41:44.780Z,98612.56
2023-02-16T08:44:11.563Z,98612.22
2023-02-16T08:46:39.804Z,98619.66
2023-02-16T08:49:07.444Z,98616.75
2023-02-16T08:51:38.344Z,98616.63
2023-02-16T08:54:06.097Z,98613.22
2023-02-16T08:56:35.618Z,98613.63
2023-02-16T08:59:02.115Z,98609.13
2023-02-16T09:01:28.698Z,98605.94
2023-02-16T09:03:55.183Z,98605.66
2023-02-16T09:06:22.514Z,98596.66
2023-02-16T09:08:53.023Z,98604.84
2023-02-16T09:11:19.791Z,98598.63
2023-02-16T09:13:46.874Z,98597.41
2023-02-16T09:16:15.707Z,98593.16
2023-02-16T09:18:42.725Z,98597.34
2023-02-16T09:21:11.347Z,98595.16
2023-02-16T09:23:39.014Z,98598.00
2023-02-16T09:26:09.742Z,98591.53
2023-02-16T09:28:38.137Z,98589.13
2023-02-16T09:31:11.800Z,98588.84
2023-02-16T09:33:38.965Z,98598.09
2023-02-16T09:36:07.012Z,98587.28
2023-02-16T09:38:34.137Z,98596.59
2023-02-16T09:41:27.571Z,98594.19
2023-02-16T09:44:06.969Z,98598.84
2023-02-16T09:46:34.280Z,98594.78
2023-02-16T09:49:02.389Z,98592.00
2023-02-16T09:51:35.260Z,98598.81
2023-02-16T09:54:10.743Z,98591.88
2023-02-16T09:56:58.834Z,98591.38
2023-02-16T09:59:34.439Z,98596.91
2023-02-16T10:02:16.711Z,98590.03
2023-02-16T10:04:58.726Z,98592.97
2023-02-16T10:07:31.704Z,98595.88
2023-02-16T10:10:00.852Z,98600.56
2023-02-16T10:12:31.415Z,98603.03
2023-02-16T10:15:06.191Z,98609.81
2023-02-16T10:17:32.677Z,98596.75
2023-02-16T10:20:18.222Z,98591.84
2023-02-16T10:22:49.885Z,98588.16
2023-02-16T10:25:39.100Z,98584.06
2023-02-16T10:28:15.977Z,98590.78
2023-02-16T10:30:44.856Z,98576.56
2023-02-16T10:33:30.082Z,98571.72
2023-02-16T10:36:00.657Z,98581.88
2023-02-16T10:38:31.202Z,98576.81
2023-02-16T10:40:57.629Z,98579.19
2023-02-16T10:43:42.511Z,98574.97
2023-02-16T10:46:11.599Z,98565.22
2023-02-16T10:48:38.115Z,98572.69
2023-02-16T10:51:17.920Z,98563.16
2023-02-16T10:54:10.838Z,98572.56
2023-02-16T10:56:37.324Z,98559.63
2023-02-16T10:59:06.986Z,98553.75
2023-02-16T11:01:33.537Z,98558.06
2023-02-16T11:04:00.005Z,98552.81
2023-02-16T11:06:26.905Z,98542.75
2023-02-16T11:08:57.147Z,98544.28
2023-02-16T11:11:27.482Z,98539.19
2023-02-16T11:13:58.704Z,98526.53
2023-02-16T11:16:25.748Z,98531.50
2023-02-16T11:18:58.112Z,98527.25
2023-02-16T11:21:42.718Z,98537.72
2023-02-16T11:24:12.095Z,98536.72
2023-02-16T11:26:39.012Z,98536.06
2023-02-16T11:29:31.736Z,98539.28
2023-02-16T11:31:59.114Z,98532.97
2023-02-16T11:34:36.059Z,98535.19
2023-02-16T11:37:05.596Z,98539.22
2023-02-16T11:39:36.000Z,98525.72
2023-02-16T11:42:10.352Z,98524.28
2023-02-16T11:44:38.450Z,98511.91
2023-02-16T11:47:20.958Z,98510.22
2023-02-16T11:49:47.580Z,98508.50
2023-02-16T11:52:23.143Z,98506.34
2023-02-16T11:54:57.517Z,98508.25
2023-02-16T11:57:25.600Z,98504.53
2023-02-16T11:59:52.197Z,98496.91
2023-02-16T12:02:24.811Z,98492.41
2023-02-16T12:04:54.954Z,98494.19
2023-02-16T12:07:23.066Z,98487.69
2023-02-16T12:09:49.745Z,98481.59
2023-02-16T12:12:35.130Z,98481.91
2023-02-16T12:15:06.910Z,98466.38
2023-02-16T12:17:36.334Z,98467.31
2023-02-16T12:20:11.442Z,98462.38
2023-02-16T12:22:48.320Z,98452.34
2023-02-16T12:25:22.473Z,98458.66
2023-02-16T12:27:52.048Z,98457.38
2023-02-16T12:30:36.951Z,98448.94
2023-02-16T12:33:14.931Z,98448.94
2023-02-16T12:36:06.671Z,98441.13
2023-02-16T12:38:48.175Z,98440.72
2023-02-16T12:41:14.636Z,98436.03
2023-02-16T12:43:50.349Z,98437.38
2023-02-16T12:46:28.213Z,98426.81
2023-02-16T12:48:59.412Z,98427.22
2023-02-16T12:51:28.650Z,98420.41
2023-02-16T12:53:58.210Z,98428.22
2023-02-16T12:56:45.048Z,98421.38
2023-02-16T12:59:22.222Z,98413.00
2023-02-16T13:01:51.829Z,98412.78
2023-02-16T13:04:22.474Z,98411.53
2023-02-16T13:06:55.814Z,98413.66
2023-02-16T13:09:34.063Z,98407.72
2023-02-16T13:12:06.484Z,98408.41
2023-02-16T13:14:34.839Z,98399.03
2023-02-16T13:17:24.122Z,98403.09
2023-02-16T13:19:51.952Z,98399.34
2023-02-16T13:22:27.799Z,98399.16
2023-02-16T13:25:14.717Z,98400.22
2023-02-16T13:28:00.341Z,98395.72
2023-02-16T13:30:48.456Z,98390.63
2023-02-16T13:33:30.287Z,98390.69
2023-02-16T13:36:03.271Z,98388.41
2023-02-16T13:38:47.889Z,98396.84
2023-02-16T13:41:23.391Z,98395.94
2023-02-16T13:43:54.419Z,98391.00
2023-02-16T13:46:29.014Z,98380.53
2023-02-16T13:48:55.997Z,98386.06
2023-02-16T13:51:25.125Z,98378.84
2023-02-16T13:53:54.315Z,98388.09
2023-02-16T13:56:23.254Z,98382.00
2023-02-16T13:58:53.327Z,98382.94
2023-02-16T14:01:32.170Z,98382.31
2023-02-16T14:03:59.622Z,98387.91
2023-02-16T14:06:26.861Z,98391.44
2023-02-16T14:09:12.225Z,98385.38
2023-02-16T14:11:52.837Z,98389.03
2023-02-16T14:14:34.808Z,98380.28
2023-02-16T14:17:16.868Z,98382.16
2023-02-16T14:20:04.984Z,98383.34
2023-02-16T14:22:48.847Z,98377.59
2023-02-16T14:25:24.479Z,98378.31
2023-02-16T14:27:59.024Z,98375.88
2023-02-16T14:30:28.789Z,98375.91
2023-02-16T14:33:16.264Z,98373.47
2023-02-16T14:36:03.184Z,98374.53
2023-02-16T14:38:33.613Z,98374.53
2023-02-16T14:41:01.351Z,98372.13
2023-02-16T14:43:35.814Z,98371.81
2023-02-16T14:46:02.474Z,98364.53
2023-02-16T14:48:35.780Z,98368.59
2023-02-16T14:51:11.931Z,98368.25
2023-02-16T14:53:51.406Z,98370.22
2023-02-16T14:56:36.872Z,98369.50
2023-02-16T14:59:07.772Z,98367.72
2023-02-16T15:01:41.247Z,98369.44
2023-02-16T15:04:09.153Z,98373.53
2023-02-16T15:06:38.609Z,98382.28
2023-02-16T15:09:13.434Z,98379.31
2023-02-16T15:12:07.814Z,98379.13
2023-02-16T15:14:37.642Z,98381.50
2023-02-16T15:17:06.642Z,98380.56
2023-02-16T15:19:33.193Z,98378.00
2023-02-16T15:22:10.270Z,98379.19
2023-02-16T15:24:36.961Z,98382.88
2023-02-16T15:27:03.671Z,98384.63
2023-02-16T15:29:30.389Z,98378.63
2023-02-16T15:31:58.899Z,98379.75
2023-02-16T15:34:30.210Z,98375.03
2023-02-16T15:36:57.255Z,98386.28
2023-02-16T15:39:48.296Z,98378.03
2023-02-16T15:42:23.993Z,98377.34
2023-02-16T15:44:50.838Z,98376.31
2023-02-16T15:47:21.662Z,98369.66
2023-02-16T15:49:48.337Z,98377.38
2023-02-16T15:52:17.617Z,98374.84
2023-02-16T15:54:45.049Z,98372.84
2023-02-16T15:57:21.159Z,98366.97
2023-02-16T15:59:48.952Z,98372.00
2023-02-16T16:02:17.183Z,98376.50
2023-02-16T16:04:46.175Z,98374.16
2023-02-16T16:07:14.587Z,98382.22
2023-02-16T16:09:42.439Z,98382.44
2023-02-16T16:12:11.625Z,98378.81
2023-02-16T16:15:01.383Z,98394.38
2023-02-16T16:17:30.269Z,98383.47
2023-02-16T16:19:58.046Z,98389.19
2023-02-16T16:22:33.060Z,98394.34
2023-02-16T16:24:59.970Z,98380.78
2023-02-16T16:27:31.491Z,98386.69
2023-02-16T16:30:09.813Z,98384.97
2023-02-16T16:32:37.781Z,98392.31
2023-02-16T16:35:18.501Z,98389.13
2023-02-16T16:37:48.843Z,98397.00
2023-02-16T16:40:18.430Z,98400.31
2023-02-16T16:43:11.407Z,98394.25
2023-02-16T16:45:41.073Z,98389.31
2023-02-16T16:48:09.305Z,98393.50
2023-02-16T16:50:39.717Z,98398.41
2023-02-16T16:53:25.352Z,98401.03
2023-02-16T16:55:51.950Z,98405.41
2023-02-16T16:58:18.429Z,98412.19
2023-02-16T17:00:44.909Z,98414.44
2023-02-16T17:03:16.723Z,98414.88
2023-02-16T17:05:43.867Z,98412.53
2023-02-16T17:08:10.997Z,98413.41
2023-02-16T17:10:39.098Z,98422.81
2023-02-16T17:13:05.850Z,98421.84
2023-02-16T17:15:32.422Z,98429.28
2023-02-16T17:17:59.004Z,98433.53
2023-02-16T17:20:25.465Z,98428.75
2023-02-16T17:22:51.988Z,98425.41
2023-02-16T17:25:18.898Z,98426.00
2023-02-16T17:27:45.392Z,98423.69
2023-02-16T17:30:12.154Z,98427.75
2023-02-16T17:32:38.815Z,98424.25
2023-02-16T17:35:06.130Z,98422.94
2023-02-16T17:37:33.203Z,98427.56
2023-02-16T17:39:59.733Z,98426.22
2023-02-16T17:42:28.155Z,98428.25
2023-02-16T17:44:54.773Z,98426.09
2023-02-16T17:47:21.307Z,98422.88
2023-02-16T17:49:47.787Z,98432.53
2023-02-16T17:52:14.300Z,98429.94
2023-02-16T17:54:40.754Z,98426.16
2023-02-16T17:57:07.194Z,98431.28
2023-02-16T17:59:34.282Z,98435.38
2023-02-16T18:02:00.849Z,98426.03
2023-02-16T18:04:27.466Z,98426.03
2023-02-16T18:06:54.065Z,98423.75
2023-02-16T18:09:24.290Z,98423.44
2023-02-16T18:11:51.442Z,98427.81
2023-02-16T18:14:17.940Z,98425.88
2023-02-16T18:16:44.497Z,98439.06
2023-02-16T18:19:14.098Z,98442.69
2023-02-16T18:21:40.552Z,98440.16
2023-02-16T18:24:07.146Z,98440.97
2023-02-16T18:26:33.780Z,98449.69
2023-02-16T18:29:00.256Z,98449.59
2023-02-16T18:31:26.835Z,98450.75
2023-02-16T18:33:53.373Z,98448.31
2023-02-16T18:36:19.838Z,98453.94
2023-02-16T18:38:46.349Z,98456.50
2023-02-16T18:41:12.940Z,98459.59
2023-02-16T18:43:39.405Z,98448.38
2023-02-16T18:46:06.828Z,98458.94
2023-02-16T18:48:33.557Z,98460.94
2023-02-16T18:51:03.189Z,98460.78
2023-02-16T18:53:29.685Z,98466.25
2023-02-16T18:55:56.173Z,98467.28
2023-02-16T18:58:22.624Z,98461.44
2023-02-16T19:00:49.639Z,98468.19
2023-02-16T19:03:16.129Z,98462.22
2023-02-16T19:05:42.704Z,98463.38
2023-02-16T19:08:09.242Z,98457.34
2023-02-16T19:10:35.669Z,98460.13
2023-02-16T19:13:02.341Z,98462.72
2023-02-16T19:15:29.236Z,98449.66
2023-02-16T19:17:55.787Z,98458.78
2023-02-16T19:20:22.335Z,98464.09
2023-02-16T19:22:49.103Z,98464.28
2023-02-16T19:25:15.657Z,98467.69
2023-02-16T19:27:42.671Z,98469.16
2023-02-16T19:30:11.682Z,98467.53
2023-02-16T19:32:40.928Z,98461.53
2023-02-16T19:35:11.176Z,98459.53
2023-02-16T19:37:37.716Z,98464.28
2023-02-16T19:40:06.679Z,98462.72
2023-02-16T19:42:33.117Z,98471.69
2023-02-16T19:44:59.603Z,98473.69
2023-02-16T19:47:26.084Z,98472.47
2023-02-16T19:49:52.822Z,98468.38
2023-02-16T19:52:19.291Z,98477.63
2023-02-16T19:54:45.800Z,98482.66
2023-02-16T19:57:12.277Z,98483.44
2023-02-16T19:59:38.763Z,98492.69
2023-02-16T20:02:05.260Z,98487.66
2023-02-16T20:04:31.806Z,98487.22
2023-02-16T20:06:58.341Z,98477.69
2023-02-16T20:09:24.951Z,98478.91
2023-02-16T20:11:51.763Z,98477.31
2023-02-16T20:14:18.256Z,98478.69
2023-02-16T20:16:44.758Z,98480.78
2023-02-16T20:19:11.287Z,98489.88
2023-02-16T20:21:37.794Z,98479.34
2023-02-16T20:24:05.190Z,98486.66
2023-02-16T20:26:34.519Z,98488.31
2023-02-16T20:29:01.423Z,98480.81
2023-02-16T20:31:27.972Z,98477.38
2023-02-16T20:33:55.297Z,98479.25
2023-02-16T20:36:22.079Z,98483.91
2023-02-16T20:38:50.267Z,98485.66
2023-02-16T20:41:20.068Z,98487.53
2023-02-16T20:43:46.982Z,98483.34
2023-02-16T20:46:14.184Z,98486.38
2023-02-16T20:48:40.728Z,98484.66
2023-02-16T20:51:07.751Z,98485.00
2023-02-16T20:53:35.296Z,98487.50
2023-02-16T20:56:09.672Z,98488.59
2023-02-16T20:58:36.547Z,98480.94
2023-02-16T21:01:03.673Z,98491.22
2023-02-16T21:03:30.184Z,98484.44
2023-02-16T21:05:56.990Z,98486.38
2023-02-16T21:08:23.580Z,98482.41
2023-02-16T21:10:50.208Z,98484.16
2023-02-16T21:13:16.678Z,98485.00
2023-02-16T21:15:43.183Z,98486.72
2023-02-16T21:18:10.537Z,98484.72
2023-02-16T21:20:37.208Z,98493.06
2023-02-16T21:23:03.692Z,98490.44
2023-02-16T21:25:30.514Z,98486.88
2023-02-16T21:27:56.996Z,98482.97
2023-02-16T21:30:25.650Z,98484.03
2023-02-16T21:32:52.149Z,98486.06
2023-02-16T21:35:18.672Z,98489.06
2023-02-16T21:37:45.152Z,98491.50
2023-02-16T21:40:30.630Z,98482.91
2023-02-16T21:42:57.466Z,98482.91
2023-02-16T21:45:24.128Z,98479.34
2023-02-16T21:48:09.378Z,98476.91
2023-02-16T21:50:37.176Z,98480.78
2023-02-16T21:53:04.718Z,98482.06
2023-02-16T21:55:50.045Z,98474.31
2023-02-16T21:58:16.930Z,98469.72
2023-02-16T22:00:44.457Z,98476.19
2023-02-16T22:03:12.437Z,98471.41
2023-02-16T22:05:38.885Z,98468.16
2023-02-16T22:08:05.576Z,98468.78
2023-02-16T22:10:32.047Z,98468.97
2023-02-16T22:12:58.843Z,98475.53
2023-02-16T22:15:26.124Z,98473.91
2023-02-16T22:17:52.715Z,98472.81
2023-02-16T22:20:19.294Z,98479.78
2023-02-16T22:22:45.865Z,98467.31
2023-02-16T22:25:12.865Z,98467.81
2023-02-16T22:27:39.745Z,98469.44
2023-02-16T22:30:07.276Z,98468.03
2023-02-16T22:32:33.941Z,98462.78
2023-02-16T22:35:00.901Z,98462.19
2023-02-16T22:37:27.374Z,98468.19
2023-02-16T22:39:56.328Z,98471.84
2023-02-16T22:42:23.083Z,98466.28
2023-02-16T22:44:49.636Z,98474.19
2023-02-16T22:47:16.114Z,98476.16
2023-02-16T22:49:42.678Z,98467.56
2023-02-16T22:52:11.070Z,98463.72
2023-02-16T22:54:37.826Z,98455.47
2023-02-16T22:57:04.382Z,98456.78
2023-02-16T22:59:30.878Z,98456.53
2023-02-16T23:01:57.395Z,98456.84
2023-02-16T23:04:24.392Z,98457.66
2023-02-16T23:06:50.947Z,98452.41
2023-02-16T23:09:19.302Z,98440.97
2023-02-16T23:11:46.304Z,98454.41
2023-02-16T23:14:18.488Z,98460.13
2023-02-16T23:16:45.966Z,98448.38
2023-02-16T23:19:13.478Z,98460.41
2023-02-16T23:21:40.529Z,98462.56
2023-02-16T23:24:07.511Z,98456.34
2023-02-16T23:26:34.064Z,98453.25
2023-02-16T23:29:01.728Z,98454.63
2023-02-16T23:31:31.650Z,98450.31
2023-02-16T23:33:59.980Z,98452.22
2023-02-16T23:36:27.625Z,98453.28
2023-02-16T23:38:54.083Z,98449.56
2023-02-16T23:41:20.535Z,98458.56
2023-02-16T23:43:47.087Z,98465.16
2023-02-16T23:46:13.596Z,98468.59
2023-02-16T23:48:40.127Z,98459.91
2023-02-16T23:51:06.719Z,98464.44
2023-02-16T23:53:33.219Z,98462.09
2023-02-16T23:55:59.740Z,98460.56
2023-02-16T23:58:27.327Z,98454.28
